Québec, Quebec

10:07 EDT le 31 octobre 2014 (GMT -0400)
Ancienne-Lorette | Change Station
CLOSE
Current Station
Stations météorologiques personnelles
Location: LAncienne-Lorette, QUéBEC
Altitude: 187 ft
Stations météo à proximité

Alt. 187 ft 46.80 °N, 71.37 °W | Updated 2 minutes ago

Mostly Cloudy
Nuageux
38.8 ° F
Paraît 39 ° F
N
2.0
Vent Variable Vent de SO

Aujourd’hui il est prévu de faire pratiquement la même température qu’hier.

Aujourd'hui
Haut(e) -- | Bas -- ° F
--% Risque de précip.
Hier
Haut(e) -- | Bas -- ° F
Precip. -- pouce
7:26 AM 5:31 PM
Premier quartier, 55% visible
Pression 30.07 pouce
Visibilité 30.0 Miles terrestres
Nuages Peu 3500 ft
Nuageux 5900 ft
Refroidissement éolien 39 ° F
Point de rosée 34 ° F
Humidité 81%
Précipitations 0.00 pouce
Profondeur de la couche neigeuse Non disponible.
UV 1 sur 12
Pollen Non disponible.
Qualité de l'air Non disponible.
Flu Activity Non disponible.
METAR CYQB 311400Z 19004KT 180V240 30SM FEW035 BKN059 04/01 A3006 RMK SC1SC6 SLP183

More Conditions Fewer Conditions

Pression 30.07 pouce
Visibilité 30.0 Miles terrestres
Nuages Peu 3500 ft
Nuageux 5900 ft
Refroidissement éolien 39 ° F
Point de rosée 34 ° F
Humidité 81%
Précipitations 0.00 pouce
Profondeur de la couche neigeuse Non disponible.
UV 1 sur 12
Pollen Non disponible.
Qualité de l'air Non disponible.
Flu Activity Non disponible.
METAR CYQB 311400Z 19004KT 180V240 30SM FEW035 BKN059 04/01 A3006 RMK SC1SC6 SLP183

More Conditions Fewer Conditions

10-Day Weather Forecast

Almanac

Astronomie

Oct. 31, 2014 Lever Coucher
Temps réel
Crépuscule civil
Crépuscule nautique
Crépuscule astronomique
Lune
Durée de lumière visible
Longueur du jour
Tomorrow will be .
, % of the Moon is Illuminated

Extrêmes aujourd'hui

Country Highs Country Lows

Community

WunderPhotos

Upload Photos

1,766,613 Photos téléchargées !

WunderBlogs® & News

Nearby

Qualité de l'air

  Qualité de l'air Indice de la qualité de l'air Polluant
Not available.

Épaisseur de neige

Station Depth Altitude

Activité sismique

Ville Distance Mag. Time & Date
Minimum magnitude displayed is 2.5.

Températures des eaux côtières

Lieu Température

Stations météo à proximité